createdAt,value
2023-02-18T00:00:36.976Z,69.89
2023-02-18T00:01:37.106Z,69.89
2023-02-18T00:02:37.022Z,69.89
2023-02-18T00:03:36.993Z,69.89
2023-02-18T00:04:36.940Z,69.92
2023-02-18T00:05:36.953Z,69.92
2023-02-18T00:06:36.884Z,70.02
2023-02-18T00:07:36.876Z,70.02
2023-02-18T00:08:36.859Z,69.99
2023-02-18T00:09:36.846Z,70.02
2023-02-18T00:10:36.850Z,70.02
2023-02-18T00:11:37.019Z,69.92
2023-02-18T00:12:36.883Z,69.92
2023-02-18T00:13:36.828Z,69.92
2023-02-18T00:14:36.816Z,70.02
2023-02-18T00:15:36.805Z,70.02
2023-02-18T00:16:36.792Z,70.02
2023-02-18T00:17:36.776Z,70.02
2023-02-18T00:18:36.747Z,70.02
2023-02-18T00:19:36.762Z,70.02
2023-02-18T00:20:36.753Z,70.02
2023-02-18T00:21:36.740Z,70.02
2023-02-18T00:22:36.757Z,70.02
2023-02-18T00:23:36.705Z,70.02
2023-02-18T00:24:36.699Z,70.02
2023-02-18T00:25:36.688Z,70.02
2023-02-18T00:26:36.708Z,70.02
2023-02-18T00:27:36.794Z,70.02
2023-02-18T00:28:36.678Z,70.02
2023-02-18T00:29:36.653Z,70.12
2023-02-18T00:30:36.676Z,70.12
2023-02-18T00:31:36.777Z,70.02
2023-02-18T00:32:36.607Z,70.02
2023-02-18T00:33:36.609Z,70.12
2023-02-18T00:34:36.586Z,70.12
2023-02-18T00:35:36.574Z,70.12
2023-02-18T00:36:36.601Z,70.12
2023-02-18T00:37:36.577Z,70.12
2023-02-18T00:38:36.561Z,70.12
2023-02-18T00:39:36.668Z,70.12
2023-02-18T00:40:36.556Z,70.12
2023-02-18T00:41:36.581Z,70.12
2023-02-18T00:42:36.512Z,70.02
2023-02-18T00:43:36.533Z,69.92
2023-02-18T00:44:36.516Z,69.92
2023-02-18T00:45:36.477Z,69.92
2023-02-18T00:46:36.530Z,69.92
2023-02-18T00:47:36.555Z,69.92
2023-02-18T00:48:36.444Z,69.92
2023-02-18T00:49:36.414Z,69.82
2023-02-18T00:50:36.420Z,69.82
2023-02-18T00:51:36.617Z,69.82
2023-02-18T00:52:36.384Z,69.82
2023-02-18T00:53:36.394Z,69.82
2023-02-18T00:54:36.381Z,69.72
2023-02-18T00:55:36.363Z,69.72
2023-02-18T00:56:36.409Z,69.72
2023-02-18T00:57:36.354Z,69.62
2023-02-18T00:58:36.409Z,69.62
2023-02-18T00:59:36.358Z,69.72
2023-02-18T01:00:36.310Z,69.72
2023-02-18T01:01:36.371Z,69.62
2023-02-18T01:02:36.280Z,69.62
2023-02-18T01:03:36.334Z,69.62
2023-02-18T01:04:36.310Z,69.72
2023-02-18T01:05:36.255Z,69.72
2023-02-18T01:06:36.250Z,69.62
2023-02-18T01:07:36.267Z,69.59
2023-02-18T01:08:36.257Z,69.62
2023-02-18T01:09:36.232Z,69.62
2023-02-18T01:10:36.200Z,69.59
2023-02-18T01:11:36.197Z,69.62
2023-02-18T01:12:36.209Z,69.62
2023-02-18T01:13:36.173Z,69.62
2023-02-18T01:14:36.149Z,69.72
2023-02-18T01:15:36.157Z,69.62
2023-02-18T01:16:36.153Z,69.72
2023-02-18T01:17:36.130Z,69.62
2023-02-18T01:18:36.123Z,69.59
2023-02-18T01:19:36.114Z,69.62
2023-02-18T01:20:36.096Z,69.72
2023-02-18T01:21:36.100Z,69.72
2023-02-18T01:22:36.074Z,69.72
2023-02-18T01:23:36.086Z,69.72
2023-02-18T01:24:36.071Z,69.72
2023-02-18T01:25:36.037Z,69.72
2023-02-18T01:26:36.033Z,69.72
2023-02-18T01:27:36.024Z,69.72
2023-02-18T01:28:36.007Z,69.72
2023-02-18T01:29:36.006Z,69.72
2023-02-18T01:30:36.056Z,69.72
2023-02-18T01:31:36.216Z,69.72
2023-02-18T01:32:35.964Z,69.72
2023-02-18T01:33:35.953Z,69.72
2023-02-18T01:34:35.996Z,69.72
2023-02-18T01:35:35.961Z,69.72
2023-02-18T01:36:35.941Z,69.82
2023-02-18T01:37:35.909Z,69.82
2023-02-18T01:38:35.906Z,69.82
2023-02-18T01:39:35.883Z,69.82
2023-02-18T01:40:35.880Z,69.82
2023-02-18T01:41:35.978Z,69.82
2023-02-18T01:42:35.852Z,69.82
2023-02-18T01:43:35.823Z,69.82
2023-02-18T01:44:35.857Z,69.82
2023-02-18T01:45:35.834Z,69.82
2023-02-18T01:46:35.885Z,69.82
2023-02-18T01:47:35.808Z,69.82
2023-02-18T01:48:37.127Z,69.82
2023-02-18T01:49:35.815Z,69.82
2023-02-18T01:50:35.759Z,69.82
2023-02-18T01:51:35.782Z,69.82
2023-02-18T01:52:35.740Z,69.82
2023-02-18T01:53:35.753Z,69.82
2023-02-18T01:54:35.740Z,69.82
2023-02-18T01:55:35.766Z,69.92
2023-02-18T01:56:35.721Z,69.92
2023-02-18T01:57:35.706Z,69.92
2023-02-18T01:58:35.671Z,69.92
2023-02-18T01:59:35.660Z,69.82
2023-02-18T02:00:35.717Z,69.82
2023-02-18T02:01:35.686Z,69.82
2023-02-18T02:02:35.639Z,69.72
2023-02-18T02:03:36.657Z,69.72
2023-02-18T02:04:35.620Z,69.62
2023-02-18T02:05:35.616Z,69.62
2023-02-18T02:06:35.619Z,69.52
2023-02-18T02:07:35.583Z,69.52
2023-02-18T02:08:35.581Z,69.52
2023-02-18T02:09:35.546Z,69.52
2023-02-18T02:10:35.562Z,69.42
2023-02-18T02:11:35.538Z,69.42
2023-02-18T02:12:35.555Z,69.42
2023-02-18T02:13:35.521Z,69.42
2023-02-18T02:14:35.510Z,69.42
2023-02-18T02:15:35.475Z,69.42
2023-02-18T02:16:35.545Z,69.42
2023-02-18T02:17:35.469Z,69.42
2023-02-18T02:18:35.472Z,69.42
2023-02-18T02:19:35.445Z,69.42
2023-02-18T02:20:35.449Z,69.42
2023-02-18T02:21:35.449Z,69.42
2023-02-18T02:22:35.420Z,69.31
2023-02-18T02:23:35.413Z,69.31
2023-02-18T02:24:35.413Z,69.31
2023-02-18T02:25:35.388Z,69.31
2023-02-18T02:26:35.417Z,69.21
2023-02-18T02:27:35.367Z,69.31
2023-02-18T02:28:35.373Z,69.31
2023-02-18T02:29:35.345Z,69.31
2023-02-18T02:30:35.405Z,69.31
2023-02-18T02:31:35.326Z,69.31
2023-02-18T02:32:35.343Z,69.31
2023-02-18T02:33:35.310Z,69.31
2023-02-18T02:34:35.292Z,69.31
2023-02-18T02:35:35.274Z,69.31
2023-02-18T02:36:35.277Z,69.31
2023-02-18T02:37:35.269Z,69.31
2023-02-18T02:38:35.262Z,69.31
2023-02-18T02:39:35.242Z,69.31
2023-02-18T02:40:35.229Z,69.31
2023-02-18T02:41:35.228Z,69.31
2023-02-18T02:42:35.194Z,69.42
2023-02-18T02:43:35.199Z,69.42
2023-02-18T02:44:35.198Z,69.42
2023-02-18T02:45:35.199Z,69.42
2023-02-18T02:46:35.158Z,69.42
2023-02-18T02:47:35.168Z,69.42
2023-02-18T02:48:35.148Z,69.42
2023-02-18T02:49:35.126Z,69.42
2023-02-18T02:50:35.122Z,69.42
2023-02-18T02:51:35.119Z,69.42
2023-02-18T02:52:35.110Z,69.42
2023-02-18T02:53:35.088Z,69.42
2023-02-18T02:54:35.196Z,69.42
2023-02-18T02:55:35.080Z,69.42
2023-02-18T02:56:35.190Z,69.42
2023-02-18T02:57:35.053Z,69.42
2023-02-18T02:58:35.040Z,69.42
2023-02-18T02:59:35.020Z,69.42
2023-02-18T03:00:35.021Z,69.42
2023-02-18T03:01:34.995Z,69.42
2023-02-18T03:02:35.007Z,69.42
2023-02-18T03:03:34.976Z,69.42
2023-02-18T03:04:34.989Z,69.42
2023-02-18T03:05:34.964Z,69.42
2023-02-18T03:06:34.971Z,69.42
2023-02-18T03:07:35.045Z,69.31
2023-02-18T03:08:34.962Z,69.31
2023-02-18T03:09:34.962Z,69.42
2023-02-18T03:10:34.921Z,69.42
2023-02-18T03:11:34.888Z,69.42
2023-02-18T03:12:35.134Z,69.42
2023-02-18T03:13:34.878Z,69.42
2023-02-18T03:14:34.864Z,69.42
2023-02-18T03:15:34.871Z,69.42
2023-02-18T03:16:34.884Z,69.42
2023-02-18T03:17:34.841Z,69.42
2023-02-18T03:18:34.832Z,69.52
2023-02-18T03:19:34.834Z,69.52
2023-02-18T03:20:34.811Z,69.52
2023-02-18T03:21:34.797Z,69.52
2023-02-18T03:22:34.777Z,69.52
2023-02-18T03:23:34.768Z,69.42
2023-02-18T03:24:34.781Z,69.42
2023-02-18T03:25:34.745Z,69.42
2023-02-18T03:26:34.740Z,69.31
2023-02-18T03:27:34.728Z,69.31
2023-02-18T03:28:34.752Z,69.31
2023-02-18T03:29:34.719Z,69.21
2023-02-18T03:30:34.746Z,69.21
2023-02-18T03:31:34.730Z,69.21
2023-02-18T03:32:34.688Z,69.21
2023-02-18T03:33:34.673Z,69.21
2023-02-18T03:34:34.662Z,69.21
2023-02-18T03:35:34.643Z,69.21
2023-02-18T03:36:34.704Z,69.21
2023-02-18T03:37:34.626Z,69.11
2023-02-18T03:38:34.615Z,69.11
2023-02-18T03:39:34.603Z,69.11
2023-02-18T03:40:34.592Z,69.21
2023-02-18T03:41:34.594Z,69.21
2023-02-18T03:42:34.568Z,69.21
2023-02-18T03:43:34.554Z,69.21
2023-02-18T03:44:34.572Z,69.21
2023-02-18T03:45:34.596Z,69.21
2023-02-18T03:46:34.542Z,69.21
2023-02-18T03:47:34.517Z,69.11
2023-02-18T03:48:34.510Z,69.11
2023-02-18T03:49:34.501Z,69.11
2023-02-18T03:50:34.484Z,69.11
2023-02-18T03:51:34.481Z,69.21
2023-02-18T03:52:34.467Z,69.11
2023-02-18T03:53:34.464Z,69.11
2023-02-18T03:54:41.502Z,69.11
2023-02-18T03:55:34.419Z,69.11
2023-02-18T03:56:34.400Z,69.11
2023-02-18T03:57:34.418Z,69.11
2023-02-18T03:58:34.423Z,69.11
2023-02-18T03:59:34.380Z,69.11
2023-02-18T04:00:34.370Z,69.11
2023-02-18T04:01:34.480Z,69.11
2023-02-18T04:02:34.362Z,69.11
2023-02-18T04:03:34.348Z,69.11
2023-02-18T04:04:34.331Z,69.11
2023-02-18T04:05:34.327Z,69.21
2023-02-18T04:06:34.323Z,69.11
2023-02-18T04:07:34.331Z,69.21
2023-02-18T04:08:34.279Z,69.11
2023-02-18T04:09:34.281Z,69.21
2023-02-18T04:10:34.257Z,69.21
2023-02-18T04:11:34.253Z,69.21
2023-02-18T04:12:34.257Z,69.21
2023-02-18T04:13:34.238Z,69.21
2023-02-18T04:14:34.229Z,69.21
2023-02-18T04:15:34.206Z,69.21
2023-02-18T04:16:34.287Z,69.21
2023-02-18T04:17:34.218Z,69.21
2023-02-18T04:18:34.189Z,69.21
2023-02-18T04:19:34.153Z,69.21
2023-02-18T04:20:34.143Z,69.21
2023-02-18T04:21:34.175Z,69.21
2023-02-18T04:22:34.138Z,69.21
2023-02-18T04:23:34.111Z,69.21
2023-02-18T04:24:34.125Z,69.21
2023-02-18T04:25:34.091Z,69.21
2023-02-18T04:26:34.101Z,69.11
2023-02-18T04:27:34.083Z,69.21
2023-02-18T04:28:34.067Z,69.21
2023-02-18T04:29:34.089Z,69.21
2023-02-18T04:30:34.131Z,69.21
2023-02-18T04:31:34.134Z,69.21
2023-02-18T04:32:34.036Z,69.21
2023-02-18T04:33:34.007Z,69.21
2023-02-18T04:34:34.025Z,69.21
2023-02-18T04:35:33.997Z,69.21
2023-02-18T04:36:33.982Z,69.21
2023-02-18T04:37:34.012Z,69.21
2023-02-18T04:38:33.964Z,69.21
2023-02-18T04:39:33.943Z,69.21
2023-02-18T04:40:33.950Z,69.21
2023-02-18T04:41:33.925Z,69.21
2023-02-18T04:42:33.914Z,69.21
2023-02-18T04:43:33.936Z,69.21
2023-02-18T04:44:33.891Z,69.21
2023-02-18T04:45:33.880Z,69.21
2023-02-18T04:46:33.936Z,69.21
2023-02-18T04:47:33.868Z,69.21
2023-02-18T04:48:33.854Z,69.21
2023-02-18T04:49:33.836Z,69.11
2023-02-18T04:50:33.828Z,69.11
2023-02-18T04:51:33.837Z,69.11
2023-02-18T04:52:33.813Z,69.11
2023-02-18T04:53:33.854Z,69.11
2023-02-18T04:54:33.807Z,69.11
2023-02-18T04:55:33.783Z,69.11
2023-02-18T04:56:33.829Z,69.01
2023-02-18T04:57:33.763Z,69.01
2023-02-18T04:58:33.747Z,69.01
2023-02-18T04:59:33.729Z,69.01
2023-02-18T05:00:33.721Z,69.01
2023-02-18T05:01:33.773Z,69.01
2023-02-18T05:02:33.712Z,69.01
2023-02-18T05:03:33.686Z,69.01
2023-02-18T05:04:33.680Z,69.01
2023-02-18T05:05:33.675Z,69.01
2023-02-18T05:06:33.801Z,69.01
2023-02-18T05:07:33.656Z,69.01
2023-02-18T05:08:33.640Z,69.01
2023-02-18T05:09:33.636Z,69.01
2023-02-18T05:10:33.625Z,69.01
2023-02-18T05:11:33.605Z,69.01
2023-02-18T05:12:33.582Z,69.01
2023-02-18T05:13:33.603Z,69.11
2023-02-18T05:14:33.581Z,69.01
2023-02-18T05:15:33.635Z,69.01
2023-02-18T05:16:33.605Z,69.11
2023-02-18T05:17:33.548Z,69.11
2023-02-18T05:18:33.561Z,69.11
2023-02-18T05:19:33.543Z,69.11
2023-02-18T05:20:33.525Z,69.11
2023-02-18T05:21:33.507Z,69.11
2023-02-18T05:22:33.508Z,69.21
2023-02-18T05:23:33.526Z,69.11
2023-02-18T05:24:33.463Z,69.21
2023-02-18T05:25:33.461Z,69.21
2023-02-18T05:26:33.446Z,69.21
2023-02-18T05:27:33.444Z,69.21
2023-02-18T05:28:33.449Z,69.21
2023-02-18T05:29:33.444Z,69.21
2023-02-18T05:30:33.464Z,69.21
2023-02-18T05:31:33.497Z,69.21
2023-02-18T05:32:33.387Z,69.21
2023-02-18T05:33:33.401Z,69.21
2023-02-18T05:34:33.362Z,69.21
2023-02-18T05:35:33.353Z,69.21
2023-02-18T05:36:33.367Z,69.21
2023-02-18T05:37:33.346Z,69.21
2023-02-18T05:38:33.328Z,69.21
2023-02-18T05:39:33.338Z,69.21
2023-02-18T05:40:33.304Z,69.21
2023-02-18T05:41:33.302Z,69.21
2023-02-18T05:42:33.285Z,69.21
2023-02-18T05:43:33.293Z,69.21
2023-02-18T05:44:33.260Z,69.21
2023-02-18T05:45:33.261Z,69.31
2023-02-18T05:46:33.262Z,69.21
2023-02-18T05:47:33.228Z,69.31
2023-02-18T05:48:33.228Z,69.31
2023-02-18T05:49:33.193Z,69.31
2023-02-18T05:50:33.212Z,69.31
2023-02-18T05:51:33.203Z,69.31
2023-02-18T05:52:33.205Z,69.31
2023-02-18T05:53:33.176Z,69.31
2023-02-18T05:54:33.163Z,69.31
2023-02-18T05:55:33.150Z,69.42
2023-02-18T05:56:33.120Z,69.42
2023-02-18T05:57:33.122Z,69.31
2023-02-18T05:58:33.091Z,69.31
2023-02-18T05:59:33.100Z,69.31
2023-02-18T06:00:33.103Z,69.42
2023-02-18T06:01:33.097Z,69.42
2023-02-18T06:02:33.092Z,69.42
2023-02-18T06:03:33.053Z,69.42
2023-02-18T06:04:33.045Z,69.42
2023-02-18T06:05:33.064Z,69.42
2023-02-18T06:06:33.025Z,69.42
2023-02-18T06:07:33.009Z,69.42
2023-02-18T06:08:33.008Z,69.52
2023-02-18T06:09:32.993Z,69.52
2023-02-18T06:10:32.974Z,69.52
2023-02-18T06:11:32.959Z,69.52
2023-02-18T06:12:32.949Z,69.52
2023-02-18T06:13:32.938Z,69.52
2023-02-18T06:14:32.931Z,69.52
2023-02-18T06:15:32.944Z,69.52
2023-02-18T06:16:33.024Z,69.52
2023-02-18T06:17:32.903Z,69.52
2023-02-18T06:18:32.885Z,69.42
2023-02-18T06:19:32.891Z,69.42
2023-02-18T06:20:32.878Z,69.31
2023-02-18T06:21:32.862Z,69.31
2023-02-18T06:22:32.866Z,69.21
2023-02-18T06:23:32.829Z,69.21
2023-02-18T06:24:32.840Z,69.21
2023-02-18T06:25:32.852Z,69.21
2023-02-18T06:26:32.808Z,69.21
2023-02-18T06:27:32.778Z,69.21
2023-02-18T06:28:32.808Z,69.21
2023-02-18T06:29:32.801Z,69.21
2023-02-18T06:30:32.796Z,69.21
2023-02-18T06:31:32.831Z,69.11
2023-02-18T06:32:32.741Z,69.11
2023-02-18T06:33:32.755Z,69.11
2023-02-18T06:34:32.710Z,69.21
2023-02-18T06:35:32.709Z,69.11
2023-02-18T06:36:32.688Z,69.11
2023-02-18T06:37:32.686Z,69.11
2023-02-18T06:38:32.677Z,69.11
2023-02-18T06:39:32.685Z,69.11
2023-02-18T06:40:32.631Z,69.11
2023-02-18T06:41:32.630Z,69.11
2023-02-18T06:42:32.620Z,69.11
2023-02-18T06:43:32.610Z,69.11
2023-02-18T06:44:32.589Z,69.11
2023-02-18T06:45:32.690Z,69.11
2023-02-18T06:46:32.743Z,69.01
2023-02-18T06:47:32.560Z,69.01
2023-02-18T06:48:32.606Z,69.01
2023-02-18T06:49:32.560Z,69.11
2023-02-18T06:50:32.533Z,69.11
2023-02-18T06:51:32.571Z,69.01
2023-02-18T06:52:32.515Z,69.01
2023-02-18T06:53:32.503Z,69.11
2023-02-18T06:54:32.492Z,69.11
2023-02-18T06:55:32.477Z,69.01
2023-02-18T06:56:32.489Z,69.01
2023-02-18T06:57:32.448Z,69.11
2023-02-18T06:58:32.458Z,69.11
2023-02-18T06:59:32.443Z,69.01
2023-02-18T07:00:32.563Z,69.01
2023-02-18T07:01:32.437Z,69.01
2023-02-18T07:02:32.397Z,69.01
2023-02-18T07:03:32.605Z,69.11
2023-02-18T07:04:32.377Z,69.11
2023-02-18T07:05:32.368Z,69.11
2023-02-18T07:06:32.356Z,69.11
2023-02-18T07:07:32.377Z,69.11
2023-02-18T07:08:32.341Z,69.11
2023-02-18T07:09:32.318Z,69.11
2023-02-18T07:10:32.297Z,69.11
2023-02-18T07:11:32.331Z,69.21
2023-02-18T07:12:32.300Z,69.21
2023-02-18T07:13:32.278Z,69.21
2023-02-18T07:14:32.291Z,69.21
2023-02-18T07:15:32.261Z,69.21
2023-02-18T07:16:32.294Z,69.21
2023-02-18T07:17:32.278Z,69.31
2023-02-18T07:18:32.222Z,69.31
2023-02-18T07:19:32.225Z,69.42
2023-02-18T07:20:32.204Z,69.42
2023-02-18T07:21:32.217Z,69.42
2023-02-18T07:22:32.183Z,69.42
2023-02-18T07:23:32.213Z,69.52
2023-02-18T07:24:32.188Z,69.52
2023-02-18T07:25:32.160Z,69.52
2023-02-18T07:26:32.150Z,69.52
2023-02-18T07:27:32.139Z,69.42
2023-02-18T07:28:32.116Z,69.52
2023-02-18T07:29:32.114Z,69.52
2023-02-18T07:30:32.168Z,69.52
2023-02-18T07:31:32.209Z,69.52
2023-02-18T07:32:32.090Z,69.52
2023-02-18T07:33:32.102Z,69.52
2023-02-18T07:34:32.066Z,69.52
2023-02-18T07:35:32.057Z,69.52
2023-02-18T07:36:32.037Z,69.52
2023-02-18T07:37:32.060Z,69.52
2023-02-18T07:38:32.010Z,69.52
2023-02-18T07:39:32.021Z,69.52
2023-02-18T07:40:32.031Z,69.52
2023-02-18T07:41:31.988Z,69.52
2023-02-18T07:42:31.991Z,69.42
2023-02-18T07:43:31.972Z,69.31
2023-02-18T07:44:31.983Z,69.21
2023-02-18T07:45:31.962Z,69.21
2023-02-18T07:46:31.948Z,69.21
2023-02-18T07:47:31.930Z,69.11
2023-02-18T07:48:31.894Z,69.21
2023-02-18T07:49:31.881Z,69.21
2023-02-18T07:50:31.882Z,69.21
2023-02-18T07:51:31.876Z,69.11
2023-02-18T07:52:31.886Z,69.11
2023-02-18T07:53:31.887Z,69.11
2023-02-18T07:54:31.832Z,69.21
2023-02-18T07:55:31.836Z,69.11
2023-02-18T07:56:31.842Z,69.11
2023-02-18T07:57:31.802Z,69.11
2023-02-18T07:58:31.790Z,69.11
2023-02-18T07:59:31.784Z,69.11
2023-02-18T08:00:31.802Z,69.11
2023-02-18T08:01:31.770Z,69.11
2023-02-18T08:02:31.782Z,69.11
2023-02-18T08:03:31.862Z,69.11
2023-02-18T08:04:31.906Z,69.11
2023-02-18T08:05:31.702Z,69.11
2023-02-18T08:06:31.721Z,69.11
2023-02-18T08:07:31.717Z,69.11
2023-02-18T08:08:31.675Z,69.11
2023-02-18T08:09:31.690Z,69.11
2023-02-18T08:10:31.698Z,69.11
2023-02-18T08:11:31.657Z,69.11
2023-02-18T08:12:31.656Z,69.21
2023-02-18T08:13:31.646Z,69.21
2023-02-18T08:14:31.636Z,69.21
2023-02-18T08:15:31.621Z,69.11
2023-02-18T08:16:31.612Z,69.21
2023-02-18T08:17:31.612Z,69.21
2023-02-18T08:18:31.596Z,69.21
2023-02-18T08:19:31.587Z,69.21
2023-02-18T08:20:31.559Z,69.21
2023-02-18T08:21:31.574Z,69.21
2023-02-18T08:22:31.615Z,69.21
2023-02-18T08:23:31.519Z,69.21
2023-02-18T08:24:31.538Z,69.21
2023-02-18T08:25:31.513Z,69.21
2023-02-18T08:26:31.499Z,69.21
2023-02-18T08:27:31.489Z,69.21
2023-02-18T08:28:31.479Z,69.11
2023-02-18T08:29:31.524Z,69.11
2023-02-18T08:30:31.561Z,69.11
2023-02-18T08:31:31.576Z,69.21
2023-02-18T08:32:31.428Z,69.11
2023-02-18T08:33:31.487Z,69.21
2023-02-18T08:34:31.408Z,69.21
2023-02-18T08:35:31.407Z,69.21
2023-02-18T08:36:31.403Z,69.21
2023-02-18T08:37:31.401Z,69.21
2023-02-18T08:38:32.441Z,69.31
2023-02-18T08:39:31.367Z,69.31
2023-02-18T08:40:31.362Z,69.31
2023-02-18T08:41:31.343Z,69.31
2023-02-18T08:42:31.344Z,69.31
2023-02-18T08:43:31.337Z,69.31
2023-02-18T08:44:31.380Z,69.31
2023-02-18T08:45:31.311Z,69.31
2023-02-18T08:46:34.852Z,69.31
2023-02-18T08:48:17.371Z,69.31
2023-02-18T08:48:32.280Z,69.31
2023-02-18T08:49:31.254Z,69.42
2023-02-18T08:50:31.251Z,69.42
2023-02-18T08:51:31.220Z,69.42
2023-02-18T08:52:31.233Z,69.42
2023-02-18T08:53:31.197Z,69.42
2023-02-18T08:54:31.207Z,69.42
2023-02-18T08:55:31.209Z,69.42
2023-02-18T08:56:31.214Z,69.42
2023-02-18T08:57:31.168Z,69.42
2023-02-18T08:58:31.164Z,69.42
2023-02-18T08:59:31.177Z,69.42
2023-02-18T09:00:31.159Z,69.42
2023-02-18T09:01:31.176Z,69.42
2023-02-18T09:02:31.154Z,69.42
2023-02-18T09:03:31.108Z,69.42
2023-02-18T09:04:31.114Z,69.42
2023-02-18T09:05:31.123Z,69.42
2023-02-18T09:06:31.086Z,69.42
2023-02-18T09:07:31.059Z,69.31
2023-02-18T09:08:31.049Z,69.31
2023-02-18T09:09:31.073Z,69.31
2023-02-18T09:10:31.047Z,69.31
2023-02-18T09:11:31.018Z,69.31
2023-02-18T09:12:31.002Z,69.31
2023-02-18T09:13:30.983Z,69.31
2023-02-18T09:14:30.985Z,69.31
2023-02-18T09:15:31.005Z,69.31
2023-02-18T09:16:31.009Z,69.31
2023-02-18T09:17:30.963Z,69.31
2023-02-18T09:18:30.966Z,69.31
2023-02-18T09:19:30.985Z,69.21
2023-02-18T09:20:30.922Z,69.21
2023-02-18T09:21:30.922Z,69.21
2023-02-18T09:22:30.943Z,69.31
2023-02-18T09:23:30.886Z,69.21
2023-02-18T09:24:30.871Z,69.21
2023-02-18T09:25:30.868Z,69.21
2023-02-18T09:26:30.836Z,69.31
2023-02-18T09:27:30.866Z,69.31
2023-02-18T09:28:30.860Z,69.31
2023-02-18T09:29:30.822Z,69.31
2023-02-18T09:30:30.844Z,69.31
2023-02-18T09:31:30.876Z,69.42
2023-02-18T09:32:35.076Z,69.42
2023-02-18T09:33:30.783Z,69.42
2023-02-18T09:34:30.841Z,69.42
2023-02-18T09:35:30.760Z,69.42
2023-02-18T09:36:30.751Z,69.52
2023-02-18T09:37:30.745Z,69.42
2023-02-18T09:38:30.737Z,69.42
2023-02-18T09:39:30.750Z,69.42
2023-02-18T09:40:30.715Z,69.52
2023-02-18T09:41:30.706Z,69.52
2023-02-18T09:42:30.681Z,69.52
2023-02-18T09:43:30.684Z,69.62
2023-02-18T09:44:30.720Z,69.62
2023-02-18T09:45:30.664Z,69.52
2023-02-18T09:46:30.694Z,69.52
2023-02-18T09:47:30.622Z,69.62
2023-02-18T09:48:30.639Z,69.62
2023-02-18T09:49:30.584Z,69.52
2023-02-18T09:50:30.607Z,69.52
2023-02-18T09:51:30.582Z,69.62
2023-02-18T09:52:30.567Z,69.62
2023-02-18T09:53:30.566Z,69.62
2023-02-18T09:54:30.557Z,69.62
2023-02-18T09:55:37.559Z,69.62
2023-02-18T09:56:30.557Z,69.62
2023-02-18T09:57:30.512Z,69.62
2023-02-18T09:58:30.526Z,69.62
2023-02-18T09:59:30.504Z,69.62
2023-02-18T10:00:30.520Z,69.72
2023-02-18T10:01:30.506Z,69.72
2023-02-18T10:02:30.478Z,69.72
2023-02-18T10:03:30.455Z,69.72
2023-02-18T10:04:30.482Z,69.72
2023-02-18T10:05:30.462Z,69.72
2023-02-18T10:06:30.523Z,69.72
2023-02-18T10:07:30.414Z,69.72
2023-02-18T10:08:30.404Z,69.72
2023-02-18T10:09:30.422Z,69.72
2023-02-18T10:10:30.385Z,69.72
2023-02-18T10:11:30.404Z,69.72
2023-02-18T10:12:30.369Z,69.62
2023-02-18T10:13:30.346Z,69.72
2023-02-18T10:14:30.350Z,69.72
2023-02-18T10:15:30.340Z,69.72
2023-02-18T10:16:30.363Z,69.72
2023-02-18T10:17:30.319Z,69.72
2023-02-18T10:19:30.295Z,69.72
2023-02-18T10:20:30.329Z,69.72
2023-02-18T10:21:30.272Z,69.72
2023-02-18T10:22:30.274Z,69.72
2023-02-18T10:23:30.229Z,69.72
2023-02-18T10:24:30.234Z,69.72
2023-02-18T10:25:30.224Z,69.62
2023-02-18T10:26:30.203Z,69.72
2023-02-18T10:27:30.189Z,69.62
2023-02-18T10:28:30.201Z,69.62
2023-02-18T10:29:30.190Z,69.62
2023-02-18T10:30:30.190Z,69.62
2023-02-18T10:31:30.244Z,69.62
2023-02-18T10:32:30.147Z,69.52
2023-02-18T10:33:30.138Z,69.52
2023-02-18T10:34:30.142Z,69.52
2023-02-18T10:35:30.133Z,69.52
2023-02-18T10:36:30.099Z,69.42
2023-02-18T10:37:30.083Z,69.42
2023-02-18T10:38:30.068Z,69.42
2023-02-18T10:39:30.057Z,69.42
2023-02-18T10:40:30.054Z,69.42
2023-02-18T10:41:30.074Z,69.42
2023-02-18T10:42:30.053Z,69.42
2023-02-18T10:43:30.056Z,69.31
2023-02-18T10:44:30.007Z,69.31
2023-02-18T10:45:30.013Z,69.31
2023-02-18T10:46:30.010Z,69.42
2023-02-18T10:47:29.976Z,69.42
2023-02-18T10:48:29.992Z,69.42
2023-02-18T10:49:29.952Z,69.42
2023-02-18T10:50:29.971Z,69.42
2023-02-18T10:51:29.951Z,69.31
2023-02-18T10:52:29.926Z,69.42
2023-02-18T10:53:29.907Z,69.31
2023-02-18T10:54:29.922Z,69.42
2023-02-18T10:55:29.886Z,69.42
2023-02-18T10:56:29.913Z,69.31
2023-02-18T10:57:29.867Z,69.42
2023-02-18T10:58:29.869Z,69.31
2023-02-18T10:59:29.855Z,69.42
2023-02-18T11:00:29.859Z,69.42
2023-02-18T11:01:29.913Z,69.42
2023-02-18T11:02:29.852Z,69.42
2023-02-18T11:03:29.819Z,69.31
2023-02-18T11:04:29.848Z,69.42
2023-02-18T11:05:29.792Z,69.31
2023-02-18T11:06:29.775Z,69.31
2023-02-18T11:07:29.761Z,69.31
2023-02-18T11:08:29.772Z,69.31
2023-02-18T11:09:29.743Z,69.21
2023-02-18T11:10:29.728Z,69.21
2023-02-18T11:11:29.718Z,69.21
2023-02-18T11:12:29.739Z,69.21
2023-02-18T11:13:29.713Z,69.11
2023-02-18T11:14:29.706Z,69.11
2023-02-18T11:15:29.667Z,69.11
2023-02-18T11:16:29.778Z,69.11
2023-02-18T11:17:29.653Z,69.11
2023-02-18T11:18:29.634Z,69.11
2023-02-18T11:19:29.635Z,69.11
2023-02-18T11:20:29.633Z,69.11
2023-02-18T11:21:29.687Z,69.11
2023-02-18T11:22:29.604Z,69.11
2023-02-18T11:23:29.600Z,69.11
2023-02-18T11:24:29.580Z,69.21
2023-02-18T11:25:29.611Z,69.15
2023-02-18T11:26:29.581Z,69.15
2023-02-18T11:27:29.554Z,69.15
2023-02-18T11:28:29.562Z,69.24
2023-02-18T11:29:29.522Z,69.24
2023-02-18T11:30:29.598Z,69.24
2023-02-18T11:31:29.646Z,69.24
2023-02-18T11:32:29.481Z,69.24
2023-02-18T11:33:29.486Z,69.35
2023-02-18T11:34:29.470Z,69.24
2023-02-18T11:35:29.449Z,69.35
2023-02-18T11:36:29.583Z,69.35
2023-02-18T11:37:29.463Z,69.35
2023-02-18T11:38:29.445Z,69.35
2023-02-18T11:39:29.409Z,69.35
2023-02-18T11:40:29.412Z,69.45
2023-02-18T11:41:29.392Z,69.45
2023-02-18T11:42:29.388Z,69.45
2023-02-18T11:43:29.380Z,69.45
2023-02-18T11:44:29.359Z,69.45
2023-02-18T11:45:29.362Z,69.45
2023-02-18T11:46:29.372Z,69.45
2023-02-18T11:47:29.361Z,69.45
2023-02-18T11:48:29.363Z,69.45
2023-02-18T11:49:29.335Z,69.45
2023-02-18T11:50:29.302Z,69.45
2023-02-18T11:51:29.293Z,69.45
2023-02-18T11:52:29.274Z,69.45
2023-02-18T11:53:29.274Z,69.35
2023-02-18T11:54:29.275Z,69.24
2023-02-18T11:55:29.253Z,69.24
2023-02-18T11:56:29.230Z,69.24
2023-02-18T11:57:29.210Z,69.24
2023-02-18T11:58:29.225Z,69.24
2023-02-18T11:59:29.205Z,69.24
2023-02-18T12:00:29.214Z,69.24
2023-02-18T12:01:29.204Z,69.21
2023-02-18T12:02:29.185Z,69.24
2023-02-18T12:03:29.195Z,69.31
2023-02-18T12:04:29.160Z,69.31
2023-02-18T12:05:29.184Z,69.31
2023-02-18T12:06:29.122Z,69.31
2023-02-18T12:07:29.138Z,69.31
2023-02-18T12:08:29.116Z,69.31
2023-02-18T12:09:29.122Z,69.21
2023-02-18T12:10:29.092Z,69.21
2023-02-18T12:11:29.091Z,69.31
2023-02-18T12:12:29.074Z,69.21
2023-02-18T12:13:29.058Z,69.21
2023-02-18T12:14:29.054Z,69.11
2023-02-18T12:15:29.064Z,69.21
2023-02-18T12:16:29.107Z,69.21
2023-02-18T12:17:29.022Z,69.21
2023-02-18T12:18:29.017Z,69.11
2023-02-18T12:19:29.018Z,69.11
2023-02-18T12:20:29.006Z,69.21
2023-02-18T12:21:28.993Z,69.11
2023-02-18T12:22:28.954Z,69.11
2023-02-18T12:23:28.935Z,69.11
2023-02-18T12:24:28.935Z,69.21
2023-02-18T12:25:28.922Z,69.11
2023-02-18T12:26:28.935Z,69.11
2023-02-18T12:27:28.937Z,69.11
2023-02-18T12:28:28.893Z,69.21
2023-02-18T12:29:28.875Z,69.21
2023-02-18T12:30:28.915Z,69.21
2023-02-18T12:31:28.930Z,69.21
2023-02-18T12:32:28.864Z,69.21
2023-02-18T12:33:28.841Z,69.21
2023-02-18T12:34:28.842Z,69.21
2023-02-18T12:35:28.817Z,69.21
2023-02-18T12:36:28.799Z,69.31
2023-02-18T12:37:28.818Z,69.21
2023-02-18T12:38:28.789Z,69.21
2023-02-18T12:39:28.773Z,69.21
2023-02-18T12:40:28.780Z,69.31
2023-02-18T12:41:28.759Z,69.31
2023-02-18T12:42:28.753Z,69.31
2023-02-18T12:43:28.721Z,69.31
2023-02-18T12:44:28.709Z,69.31
2023-02-18T12:45:28.704Z,69.31
2023-02-18T12:46:28.862Z,69.31
2023-02-18T12:47:28.696Z,69.42
2023-02-18T12:48:28.685Z,69.42
2023-02-18T12:49:28.672Z,69.42
2023-02-18T12:50:28.668Z,69.42
2023-02-18T12:51:30.407Z,69.42
2023-02-18T12:52:28.640Z,69.42
2023-02-18T12:53:28.633Z,69.42